Aérodrome :
LOGIN :

S'inscrire | Disclaimer

   EN    FR    IT 

 










Légende :    VFR   VFR Marginal   IFR   IFR Intensif   IFR Très Intensif
Visi : 
Plafond : 
>= 8 km
>= 3000ft
5 à 8 km
1000 à 3000 ft
1500m à 5 km
500 à 1000 ft
800 à 1500m
200 à 500 ft
< 800m
< 200 ft
Symboles :   Orages  Brouillard  Fortes neiges  Fortes précipitations  Vent > 20 kt
SIGMETs :   Divers  Orages  Givrage  Turbulence  Onde Orograph.  Cendres Volcan.






- Altitude de l'aérodrome : 138 ft
- Code IATA : BIO


LEBB - Bilbao

DERNIER METAR :
  • 220530Z 28009KT 240V310 9999 RA FEW012 SCT025 BKN050 10/09 Q0997 TEMPO 3000 RA BKN010

METARs EXPIRÉS :
  • 220500Z 30010KT 9999 FEW012 SCT025 BKN050 11/10 Q0997 TEMPO 3000 RA BKN010
  • 220430Z 27006KT 220V330 9999 FEW012 SCT020 BKN070 11/10 Q0995 TEMPO 3000 RA BKN010
  • 220400Z 32011KT 280V360 9999 FEW010 SCT030 BKN050 11/10 Q0995 TEMPO 3000 RA BKN010
  • 220330Z AUTO 25019G31KT 200V290 2300 -RA SCT046 BKN050 BKN060 13/09 Q0996
  • 220300Z AUTO 23009KT 160V300 9999 SCT065 17/07 Q0995

TAF TAF LEBB
Valide du 22 à 06h jusqu'au 23 à 06h UTC


220500Z 2206/2306 27009KT 9999 SCT050 TX10/2206Z TN07/2306Z
PROB40
TEMPO 2206/2208 27020G43KT TS SCT020CB
TEMPO 2206/2218 28017G30KT 3000 RA SHRA BKN012 SCT020TCU
PROB30
TEMPO 2211/2218 TS SCT020CB
BECMG 2220/2224 21010KT
PROB40
TEMPO 2300/2306 21015G25KT



MET'MAP, la Météo Aéronautique d'un coup d'oeil ! - Copyright ORBIFLY Décembre 2007 - Disclaimer

ORBIFLY MET'MAP TEAM :

Programmation & Développement : Alexandra Zaïnal
Sur une idée originale de : Baudouin d'Aumeries
Assistance à la programmation : Marc-Olivier Méhu
Soutien technique & logistique : Manuel Goepfert

Contact : metmap@orbifly.com




SOURCES & CREDITS :

   NOAA